sensor_id;sensor_type;location;lat;lon;timestamp;temperature;humidity
48876;DHT22;34689;51.644;5.618;2022-12-07T00:01:33;5.10;99.90
48876;DHT22;34689;51.644;5.618;2022-12-07T00:04:01;5.10;99.90
48876;DHT22;34689;51.644;5.618;2022-12-07T00:06:50;5.00;99.90
48876;DHT22;34689;51.644;5.618;2022-12-07T00:09:17;5.00;99.90
48876;DHT22;34689;51.644;5.618;2022-12-07T00:11:43;5.00;99.90
48876;DHT22;34689;51.644;5.618;2022-12-07T00:14:14;4.90;99.90
48876;DHT22;34689;51.644;5.618;2022-12-07T00:16:40;4.90;99.90
48876;DHT22;34689;51.644;5.618;2022-12-07T00:19:06;4.90;99.90
48876;DHT22;34689;51.644;5.618;2022-12-07T00:21:34;4.90;99.90
48876;DHT22;34689;51.644;5.618;2022-12-07T00:24:01;4.90;99.90
48876;DHT22;34689;51.644;5.618;2022-12-07T00:26:29;4.90;99.90
48876;DHT22;34689;51.644;5.618;2022-12-07T00:28:57;4.90;99.90
48876;DHT22;34689;51.644;5.618;2022-12-07T00:31:29;4.90;99.90
48876;DHT22;34689;51.644;5.618;2022-12-07T00:33:57;4.80;99.90
48876;DHT22;34689;51.644;5.618;2022-12-07T00:36:24;4.80;99.90
48876;DHT22;34689;51.644;5.618;2022-12-07T00:38:50;4.80;99.90
48876;DHT22;34689;51.644;5.618;2022-12-07T00:41:21;4.80;99.90
48876;DHT22;34689;51.644;5.618;2022-12-07T00:43:48;4.80;99.90
48876;DHT22;34689;51.644;5.618;2022-12-07T00:46:15;4.80;99.90
48876;DHT22;34689;51.644;5.618;2022-12-07T00:48:41;4.80;99.90
48876;DHT22;34689;51.644;5.618;2022-12-07T00:51:09;4.80;99.90
48876;DHT22;34689;51.644;5.618;2022-12-07T00:53:35;4.80;99.90
48876;DHT22;34689;51.644;5.618;2022-12-07T00:56:09;4.70;99.90
48876;DHT22;34689;51.644;5.618;2022-12-07T00:58:36;4.70;99.90
48876;DHT22;34689;51.644;5.618;2022-12-07T01:01:04;4.70;99.90
48876;DHT22;34689;51.644;5.618;2022-12-07T01:03:30;4.70;99.90
48876;DHT22;34689;51.644;5.618;2022-12-07T01:05:56;4.70;99.90
48876;DHT22;34689;51.644;5.618;2022-12-07T01:08:23;4.70;99.90
48876;DHT22;34689;51.644;5.618;2022-12-07T01:10:49;4.70;99.90
48876;DHT22;34689;51.644;5.618;2022-12-07T01:13:15;4.70;99.90
48876;DHT22;34689;51.644;5.618;2022-12-07T01:15:45;4.70;99.90
48876;DHT22;34689;51.644;5.618;2022-12-07T01:18:11;4.70;99.90
48876;DHT22;34689;51.644;5.618;2022-12-07T01:20:37;4.70;99.90
48876;DHT22;34689;51.644;5.618;2022-12-07T01:23:02;4.70;99.90
48876;DHT22;34689;51.644;5.618;2022-12-07T01:25:28;4.70;99.90
48876;DHT22;34689;51.644;5.618;2022-12-07T01:27:54;4.70;99.90
48876;DHT22;34689;51.644;5.618;2022-12-07T01:30:20;4.70;99.90
48876;DHT22;34689;51.644;5.618;2022-12-07T01:32:45;4.70;99.90
48876;DHT22;34689;51.644;5.618;2022-12-07T01:35:11;4.70;99.90
48876;DHT22;34689;51.644;5.618;2022-12-07T01:37:38;4.70;99.90
48876;DHT22;34689;51.644;5.618;2022-12-07T01:40:07;4.60;99.90
48876;DHT22;34689;51.644;5.618;2022-12-07T01:42:34;4.60;99.90
48876;DHT22;34689;51.644;5.618;2022-12-07T01:47:47;4.50;99.90
48876;DHT22;34689;51.644;5.618;2022-12-07T01:50:15;4.50;99.90
48876;DHT22;34689;51.644;5.618;2022-12-07T01:52:42;4.50;99.90
48876;DHT22;34689;51.644;5.618;2022-12-07T01:55:12;4.60;99.90
48876;DHT22;34689;51.644;5.618;2022-12-07T01:57:43;4.60;99.90
48876;DHT22;34689;51.644;5.618;2022-12-07T02:00:11;4.60;99.90
48876;DHT22;34689;51.644;5.618;2022-12-07T02:05:27;4.50;99.90
48876;DHT22;34689;51.644;5.618;2022-12-07T02:07:55;4.50;99.90
48876;DHT22;34689;51.644;5.618;2022-12-07T02:10:27;4.50;99.90
48876;DHT22;34689;51.644;5.618;2022-12-07T02:13:07;4.50;99.90
48876;DHT22;34689;51.644;5.618;2022-12-07T02:29:33;4.40;99.90
48876;DHT22;34689;51.644;5.618;2022-12-07T02:39:55;4.30;99.90
48876;DHT22;34689;51.644;5.618;2022-12-07T02:42:35;4.30;99.90
48876;DHT22;34689;51.644;5.618;2022-12-07T02:45:02;4.30;99.90
48876;DHT22;34689;51.644;5.618;2022-12-07T02:47:29;4.30;99.90
48876;DHT22;34689;51.644;5.618;2022-12-07T02:49:57;4.30;99.90
48876;DHT22;34689;51.644;5.618;2022-12-07T02:52:22;4.30;99.90
48876;DHT22;34689;51.644;5.618;2022-12-07T02:54:48;4.20;99.90
48876;DHT22;34689;51.644;5.618;2022-12-07T03:00:27;4.20;99.90
48876;DHT22;34689;51.644;5.618;2022-12-07T03:03:03;4.10;99.90
48876;DHT22;34689;51.644;5.618;2022-12-07T03:05:55;4.10;99.90
48876;DHT22;34689;51.644;5.618;2022-12-07T03:08:33;4.10;99.90
48876;DHT22;34689;51.644;5.618;2022-12-07T03:16:25;4.10;99.90
48876;DHT22;34689;51.644;5.618;2022-12-07T03:19:21;4.10;99.90
48876;DHT22;34689;51.644;5.618;2022-12-07T03:22:03;4.20;99.90
48876;DHT22;34689;51.644;5.618;2022-12-07T03:27:43;4.20;99.90
48876;DHT22;34689;51.644;5.618;2022-12-07T03:30:15;4.30;99.90
48876;DHT22;34689;51.644;5.618;2022-12-07T03:33:01;4.20;99.90
48876;DHT22;34689;51.644;5.618;2022-12-07T03:35:39;4.20;99.90
48876;DHT22;34689;51.644;5.618;2022-12-07T03:38:36;4.20;99.90
48876;DHT22;34689;51.644;5.618;2022-12-07T03:41:17;4.20;99.90
48876;DHT22;34689;51.644;5.618;2022-12-07T03:43:44;4.20;99.90
48876;DHT22;34689;51.644;5.618;2022-12-07T03:54:36;4.20;99.90
48876;DHT22;34689;51.644;5.618;2022-12-07T03:57:05;4.30;99.90
48876;DHT22;34689;51.644;5.618;2022-12-07T03:59:33;4.20;99.90
48876;DHT22;34689;51.644;5.618;2022-12-07T04:02:03;4.30;99.90
48876;DHT22;34689;51.644;5.618;2022-12-07T04:04:29;4.30;99.90
48876;DHT22;34689;51.644;5.618;2022-12-07T04:06:55;4.30;99.90
48876;DHT22;34689;51.644;5.618;2022-12-07T04:09:21;4.30;99.90
48876;DHT22;34689;51.644;5.618;2022-12-07T04:11:47;4.40;99.90
48876;DHT22;34689;51.644;5.618;2022-12-07T04:14:13;4.40;99.90
48876;DHT22;34689;51.644;5.618;2022-12-07T04:16:53;4.40;99.90
48876;DHT22;34689;51.644;5.618;2022-12-07T04:19:21;4.40;99.90
48876;DHT22;34689;51.644;5.618;2022-12-07T04:21:48;4.40;99.90
48876;DHT22;34689;51.644;5.618;2022-12-07T04:24:14;4.40;99.90
48876;DHT22;34689;51.644;5.618;2022-12-07T04:26:41;4.40;99.90
48876;DHT22;34689;51.644;5.618;2022-12-07T04:29:07;4.40;99.90
48876;DHT22;34689;51.644;5.618;2022-12-07T04:31:33;4.40;99.90
48876;DHT22;34689;51.644;5.618;2022-12-07T04:33:59;4.40;99.90
48876;DHT22;34689;51.644;5.618;2022-12-07T04:36:24;4.40;99.90
48876;DHT22;34689;51.644;5.618;2022-12-07T04:38:53;4.50;99.90
48876;DHT22;34689;51.644;5.618;2022-12-07T04:41:19;4.50;99.90
48876;DHT22;34689;51.644;5.618;2022-12-07T04:43:44;4.50;99.90
48876;DHT22;34689;51.644;5.618;2022-12-07T04:46:10;4.50;99.90
48876;DHT22;34689;51.644;5.618;2022-12-07T04:48:35;4.50;99.90
48876;DHT22;34689;51.644;5.618;2022-12-07T04:51:02;4.40;99.90
48876;DHT22;34689;51.644;5.618;2022-12-07T04:53:29;4.40;99.90
48876;DHT22;34689;51.644;5.618;2022-12-07T04:55:54;4.40;99.90
48876;DHT22;34689;51.644;5.618;2022-12-07T04:58:20;4.40;99.90
48876;DHT22;34689;51.644;5.618;2022-12-07T05:00:45;4.40;99.90
48876;DHT22;34689;51.644;5.618;2022-12-07T05:03:11;4.40;99.90
48876;DHT22;34689;51.644;5.618;2022-12-07T05:05:40;4.30;99.90
48876;DHT22;34689;51.644;5.618;2022-12-07T05:08:07;4.30;99.90
48876;DHT22;34689;51.644;5.618;2022-12-07T05:10:32;4.30;99.90
48876;DHT22;34689;51.644;5.618;2022-12-07T05:12:58;4.20;99.90
48876;DHT22;34689;51.644;5.618;2022-12-07T05:15:23;4.20;99.90
48876;DHT22;34689;51.644;5.618;2022-12-07T05:17:49;4.20;99.90
48876;DHT22;34689;51.644;5.618;2022-12-07T05:20:15;4.20;99.90
48876;DHT22;34689;51.644;5.618;2022-12-07T05:22:40;4.20;99.90
48876;DHT22;34689;51.644;5.618;2022-12-07T05:25:06;4.20;99.90
48876;DHT22;34689;51.644;5.618;2022-12-07T05:27:32;4.20;99.90
48876;DHT22;34689;51.644;5.618;2022-12-07T05:29:58;4.20;99.90
48876;DHT22;34689;51.644;5.618;2022-12-07T05:32:23;4.20;99.90
48876;DHT22;34689;51.644;5.618;2022-12-07T05:34:49;4.10;99.90
48876;DHT22;34689;51.644;5.618;2022-12-07T05:37:15;4.10;99.90
48876;DHT22;34689;51.644;5.618;2022-12-07T05:39:40;4.10;99.90
48876;DHT22;34689;51.644;5.618;2022-12-07T05:42:10;4.10;99.90
48876;DHT22;34689;51.644;5.618;2022-12-07T05:44:44;4.10;99.90
48876;DHT22;34689;51.644;5.618;2022-12-07T05:47:13;4.10;99.90
48876;DHT22;34689;51.644;5.618;2022-12-07T05:49:39;4.10;99.90
48876;DHT22;34689;51.644;5.618;2022-12-07T05:52:05;4.10;99.90
48876;DHT22;34689;51.644;5.618;2022-12-07T05:54:30;4.10;99.90
48876;DHT22;34689;51.644;5.618;2022-12-07T05:56:57;4.10;99.90
48876;DHT22;34689;51.644;5.618;2022-12-07T05:59:23;4.10;99.90
48876;DHT22;34689;51.644;5.618;2022-12-07T06:01:51;4.00;99.90
48876;DHT22;34689;51.644;5.618;2022-12-07T06:04:17;4.00;99.90
48876;DHT22;34689;51.644;5.618;2022-12-07T06:06:43;4.00;99.90
48876;DHT22;34689;51.644;5.618;2022-12-07T06:09:09;4.00;99.90
48876;DHT22;34689;51.644;5.618;2022-12-07T06:11:35;4.00;99.90
48876;DHT22;34689;51.644;5.618;2022-12-07T06:14:19;3.90;99.90
48876;DHT22;34689;51.644;5.618;2022-12-07T06:16:45;3.90;99.90
48876;DHT22;34689;51.644;5.618;2022-12-07T06:19:11;3.90;99.90
48876;DHT22;34689;51.644;5.618;2022-12-07T06:21:36;3.90;99.90
48876;DHT22;34689;51.644;5.618;2022-12-07T06:24:02;3.80;99.90
48876;DHT22;34689;51.644;5.618;2022-12-07T06:26:28;3.80;99.90
48876;DHT22;34689;51.644;5.618;2022-12-07T06:28:53;3.80;99.90
48876;DHT22;34689;51.644;5.618;2022-12-07T06:31:19;3.80;99.90
48876;DHT22;34689;51.644;5.618;2022-12-07T06:33:45;3.80;99.90
48876;DHT22;34689;51.644;5.618;2022-12-07T06:36:11;3.70;99.90
48876;DHT22;34689;51.644;5.618;2022-12-07T06:38:37;3.70;99.90
48876;DHT22;34689;51.644;5.618;2022-12-07T06:41:03;3.70;99.90
48876;DHT22;34689;51.644;5.618;2022-12-07T06:43:29;3.70;99.90
48876;DHT22;34689;51.644;5.618;2022-12-07T06:45:54;3.70;99.90
48876;DHT22;34689;51.644;5.618;2022-12-07T06:48:21;3.70;99.90
48876;DHT22;34689;51.644;5.618;2022-12-07T06:50:47;3.70;99.90
48876;DHT22;34689;51.644;5.618;2022-12-07T06:53:13;3.70;99.90
48876;DHT22;34689;51.644;5.618;2022-12-07T06:55:39;3.70;99.90
48876;DHT22;34689;51.644;5.618;2022-12-07T06:58:05;3.70;99.90
48876;DHT22;34689;51.644;5.618;2022-12-07T07:00:30;3.70;99.90
48876;DHT22;34689;51.644;5.618;2022-12-07T07:02:56;3.70;99.90
48876;DHT22;34689;51.644;5.618;2022-12-07T07:05:22;3.80;99.90
48876;DHT22;34689;51.644;5.618;2022-12-07T07:07:49;3.70;99.90
48876;DHT22;34689;51.644;5.618;2022-12-07T07:10:15;3.70;99.90
48876;DHT22;34689;51.644;5.618;2022-12-07T07:12:40;3.70;99.90
48876;DHT22;34689;51.644;5.618;2022-12-07T07:15:06;3.70;99.90
48876;DHT22;34689;51.644;5.618;2022-12-07T07:17:32;3.80;99.90
48876;DHT22;34689;51.644;5.618;2022-12-07T07:19:58;3.80;99.90
48876;DHT22;34689;51.644;5.618;2022-12-07T07:22:23;3.80;99.90
48876;DHT22;34689;51.644;5.618;2022-12-07T07:24:49;3.80;99.90
48876;DHT22;34689;51.644;5.618;2022-12-07T07:27:15;3.80;99.90
48876;DHT22;34689;51.644;5.618;2022-12-07T07:29:40;3.80;99.90
48876;DHT22;34689;51.644;5.618;2022-12-07T07:32:06;3.80;99.90
48876;DHT22;34689;51.644;5.618;2022-12-07T07:34:33;3.90;99.90
48876;DHT22;34689;51.644;5.618;2022-12-07T07:36:58;3.90;99.90
48876;DHT22;34689;51.644;5.618;2022-12-07T07:39:24;3.80;99.90
48876;DHT22;34689;51.644;5.618;2022-12-07T07:41:50;3.90;99.90
48876;DHT22;34689;51.644;5.618;2022-12-07T07:44:15;3.90;99.90
48876;DHT22;34689;51.644;5.618;2022-12-07T07:46:41;3.90;99.90
48876;DHT22;34689;51.644;5.618;2022-12-07T07:49:09;3.80;99.90
48876;DHT22;34689;51.644;5.618;2022-12-07T07:51:35;3.80;99.90
48876;DHT22;34689;51.644;5.618;2022-12-07T07:54:01;3.80;99.90
48876;DHT22;34689;51.644;5.618;2022-12-07T07:56:27;3.80;99.90
48876;DHT22;34689;51.644;5.618;2022-12-07T07:58:53;3.80;99.90
48876;DHT22;34689;51.644;5.618;2022-12-07T08:01:19;3.80;99.90
48876;DHT22;34689;51.644;5.618;2022-12-07T08:03:46;3.80;99.90
48876;DHT22;34689;51.644;5.618;2022-12-07T08:06:12;3.80;99.90
48876;DHT22;34689;51.644;5.618;2022-12-07T08:08:37;3.80;99.90
48876;DHT22;34689;51.644;5.618;2022-12-07T08:11:07;3.90;99.90
48876;DHT22;34689;51.644;5.618;2022-12-07T08:13:33;3.90;99.90
48876;DHT22;34689;51.644;5.618;2022-12-07T08:16:04;3.90;99.90
48876;DHT22;34689;51.644;5.618;2022-12-07T08:18:30;3.90;99.90
48876;DHT22;34689;51.644;5.618;2022-12-07T08:21:00;4.00;99.90
48876;DHT22;34689;51.644;5.618;2022-12-07T08:23:28;4.00;99.90
48876;DHT22;34689;51.644;5.618;2022-12-07T08:25:54;4.00;99.90
48876;DHT22;34689;51.644;5.618;2022-12-07T08:28:20;4.00;99.90
48876;DHT22;34689;51.644;5.618;2022-12-07T08:30:46;4.00;99.90
48876;DHT22;34689;51.644;5.618;2022-12-07T08:33:11;4.00;99.90
48876;DHT22;34689;51.644;5.618;2022-12-07T08:35:38;4.10;99.90
48876;DHT22;34689;51.644;5.618;2022-12-07T08:38:04;4.10;99.90
48876;DHT22;34689;51.644;5.618;2022-12-07T08:40:30;4.10;99.90
48876;DHT22;34689;51.644;5.618;2022-12-07T08:42:55;4.20;99.90
48876;DHT22;34689;51.644;5.618;2022-12-07T08:45:21;4.20;99.90
48876;DHT22;34689;51.644;5.618;2022-12-07T08:47:51;4.20;99.90
48876;DHT22;34689;51.644;5.618;2022-12-07T08:50:18;4.20;99.90
48876;DHT22;34689;51.644;5.618;2022-12-07T08:52:44;4.20;99.90
48876;DHT22;34689;51.644;5.618;2022-12-07T08:55:12;4.20;99.90
48876;DHT22;34689;51.644;5.618;2022-12-07T08:57:39;4.20;99.90
48876;DHT22;34689;51.644;5.618;2022-12-07T09:00:05;4.30;99.90
48876;DHT22;34689;51.644;5.618;2022-12-07T09:02:32;4.30;99.90
48876;DHT22;34689;51.644;5.618;2022-12-07T09:04:57;4.30;99.90
48876;DHT22;34689;51.644;5.618;2022-12-07T09:07:24;4.30;99.90
48876;DHT22;34689;51.644;5.618;2022-12-07T09:09:50;4.30;99.90
48876;DHT22;34689;51.644;5.618;2022-12-07T09:12:15;4.30;99.90
48876;DHT22;34689;51.644;5.618;2022-12-07T09:14:41;4.40;99.90
48876;DHT22;34689;51.644;5.618;2022-12-07T09:17:12;4.40;99.90
48876;DHT22;34689;51.644;5.618;2022-12-07T09:19:38;4.50;99.90
48876;DHT22;34689;51.644;5.618;2022-12-07T09:22:04;4.60;99.90
48876;DHT22;34689;51.644;5.618;2022-12-07T09:24:31;4.60;99.90
48876;DHT22;34689;51.644;5.618;2022-12-07T09:26:57;4.70;99.90
48876;DHT22;34689;51.644;5.618;2022-12-07T09:29:23;4.70;99.90
48876;DHT22;34689;51.644;5.618;2022-12-07T09:31:49;4.70;99.90
48876;DHT22;34689;51.644;5.618;2022-12-07T09:34:15;4.80;99.90
48876;DHT22;34689;51.644;5.618;2022-12-07T09:36:41;4.80;99.90
48876;DHT22;34689;51.644;5.618;2022-12-07T09:39:08;4.80;99.90
48876;DHT22;34689;51.644;5.618;2022-12-07T09:41:38;4.80;99.90
48876;DHT22;34689;51.644;5.618;2022-12-07T09:44:09;4.90;99.90
48876;DHT22;34689;51.644;5.618;2022-12-07T09:46:45;4.90;99.90
48876;DHT22;34689;51.644;5.618;2022-12-07T09:49:21;4.90;99.90
48876;DHT22;34689;51.644;5.618;2022-12-07T09:54:36;5.00;99.90
48876;DHT22;34689;51.644;5.618;2022-12-07T09:57:04;5.00;99.90
48876;DHT22;34689;51.644;5.618;2022-12-07T09:59:30;5.00;99.90
48876;DHT22;34689;51.644;5.618;2022-12-07T10:01:55;5.10;99.90
48876;DHT22;34689;51.644;5.618;2022-12-07T10:04:43;5.20;99.90
48876;DHT22;34689;51.644;5.618;2022-12-07T10:07:09;5.30;99.90
48876;DHT22;34689;51.644;5.618;2022-12-07T10:09:35;5.40;99.90
48876;DHT22;34689;51.644;5.618;2022-12-07T10:14:33;5.50;99.90
48876;DHT22;34689;51.644;5.618;2022-12-07T10:17:00;5.50;99.90
48876;DHT22;34689;51.644;5.618;2022-12-07T10:19:31;5.50;99.90
48876;DHT22;34689;51.644;5.618;2022-12-07T10:22:05;5.60;99.90
48876;DHT22;34689;51.644;5.618;2022-12-07T10:24:34;5.60;99.90
48876;DHT22;34689;51.644;5.618;2022-12-07T10:27:00;5.70;99.90
48876;DHT22;34689;51.644;5.618;2022-12-07T10:29:34;5.70;99.90
48876;DHT22;34689;51.644;5.618;2022-12-07T10:32:05;5.70;99.90
48876;DHT22;34689;51.644;5.618;2022-12-07T10:34:34;5.70;99.90
48876;DHT22;34689;51.644;5.618;2022-12-07T10:42:30;5.80;99.90
48876;DHT22;34689;51.644;5.618;2022-12-07T10:48:02;5.90;99.90
48876;DHT22;34689;51.644;5.618;2022-12-07T10:51:02;5.90;99.90
48876;DHT22;34689;51.644;5.618;2022-12-07T10:59:15;6.00;99.90
48876;DHT22;34689;51.644;5.618;2022-12-07T11:01:51;6.00;99.90
48876;DHT22;34689;51.644;5.618;2022-12-07T11:04:33;6.00;99.90
48876;DHT22;34689;51.644;5.618;2022-12-07T11:15:46;6.00;99.90
48876;DHT22;34689;51.644;5.618;2022-12-07T11:18:22;6.00;99.90
48876;DHT22;34689;51.644;5.618;2022-12-07T11:21:09;6.00;99.90
48876;DHT22;34689;51.644;5.618;2022-12-07T11:34:42;6.10;99.90
48876;DHT22;34689;51.644;5.618;2022-12-07T11:37:18;6.00;99.90
48876;DHT22;34689;51.644;5.618;2022-12-07T11:39:52;6.00;99.90
48876;DHT22;34689;51.644;5.618;2022-12-07T11:42:29;6.00;99.90
48876;DHT22;34689;51.644;5.618;2022-12-07T11:45:14;6.00;99.90
48876;DHT22;34689;51.644;5.618;2022-12-07T11:47:58;6.00;99.90
48876;DHT22;34689;51.644;5.618;2022-12-07T11:50:53;6.00;99.90
48876;DHT22;34689;51.644;5.618;2022-12-07T11:53:27;6.00;99.90
48876;DHT22;34689;51.644;5.618;2022-12-07T11:56:12;6.00;99.90
48876;DHT22;34689;51.644;5.618;2022-12-07T12:01:30;6.00;99.90
48876;DHT22;34689;51.644;5.618;2022-12-07T12:06:38;6.00;99.90
48876;DHT22;34689;51.644;5.618;2022-12-07T12:09:16;6.00;99.90
48876;DHT22;34689;51.644;5.618;2022-12-07T12:19:58;6.30;99.90
48876;DHT22;34689;51.644;5.618;2022-12-07T12:22:46;6.40;99.90
48876;DHT22;34689;51.644;5.618;2022-12-07T12:25:41;6.40;99.90
48876;DHT22;34689;51.644;5.618;2022-12-07T12:28:24;6.50;99.90
48876;DHT22;34689;51.644;5.618;2022-12-07T12:31:12;6.40;99.90
48876;DHT22;34689;51.644;5.618;2022-12-07T12:33:46;6.40;99.90
48876;DHT22;34689;51.644;5.618;2022-12-07T12:47:00;6.30;99.90
48876;DHT22;34689;51.644;5.618;2022-12-07T12:49:40;6.20;99.90
48876;DHT22;34689;51.644;5.618;2022-12-07T12:55:02;6.30;99.90
48876;DHT22;34689;51.644;5.618;2022-12-07T12:57:37;6.30;99.90
48876;DHT22;34689;51.644;5.618;2022-12-07T13:00:20;6.30;99.90
48876;DHT22;34689;51.644;5.618;2022-12-07T13:02:58;6.20;99.90
48876;DHT22;34689;51.644;5.618;2022-12-07T13:05:33;6.30;99.90
48876;DHT22;34689;51.644;5.618;2022-12-07T13:08:21;6.30;99.90
48876;DHT22;34689;51.644;5.618;2022-12-07T13:10:49;6.30;99.90
48876;DHT22;34689;51.644;5.618;2022-12-07T13:23:39;6.10;99.90
48876;DHT22;34689;51.644;5.618;2022-12-07T13:31:39;6.00;99.90
48876;DHT22;34689;51.644;5.618;2022-12-07T13:34:35;5.90;99.90
48876;DHT22;34689;51.644;5.618;2022-12-07T13:39:50;5.90;99.90
48876;DHT22;34689;51.644;5.618;2022-12-07T13:42:25;5.90;99.90
48876;DHT22;34689;51.644;5.618;2022-12-07T13:44:52;5.90;99.90
48876;DHT22;34689;51.644;5.618;2022-12-07T13:47:38;5.90;99.90
48876;DHT22;34689;51.644;5.618;2022-12-07T13:50:28;5.90;99.90
48876;DHT22;34689;51.644;5.618;2022-12-07T13:52:59;5.90;99.90
48876;DHT22;34689;51.644;5.618;2022-12-07T13:55:25;6.00;99.90
48876;DHT22;34689;51.644;5.618;2022-12-07T13:57:53;6.00;99.90
48876;DHT22;34689;51.644;5.618;2022-12-07T14:03:02;6.00;99.90
48876;DHT22;34689;51.644;5.618;2022-12-07T14:05:29;6.00;99.90
48876;DHT22;34689;51.644;5.618;2022-12-07T14:10:27;6.00;99.90
48876;DHT22;34689;51.644;5.618;2022-12-07T14:12:53;6.00;99.90
48876;DHT22;34689;51.644;5.618;2022-12-07T14:15:29;6.10;99.90
48876;DHT22;34689;51.644;5.618;2022-12-07T14:17:56;6.10;99.90
48876;DHT22;34689;51.644;5.618;2022-12-07T14:20:37;6.10;99.90
48876;DHT22;34689;51.644;5.618;2022-12-07T14:23:05;6.10;99.90
48876;DHT22;34689;51.644;5.618;2022-12-07T14:25:48;6.10;99.90
48876;DHT22;34689;51.644;5.618;2022-12-07T14:28:29;6.10;99.90
48876;DHT22;34689;51.644;5.618;2022-12-07T14:30:56;6.10;99.90
48876;DHT22;34689;51.644;5.618;2022-12-07T14:33:23;6.10;99.90
48876;DHT22;34689;51.644;5.618;2022-12-07T14:35:49;6.00;99.90
48876;DHT22;34689;51.644;5.618;2022-12-07T14:38:15;6.00;99.90
48876;DHT22;34689;51.644;5.618;2022-12-07T14:40:41;6.00;99.90
48876;DHT22;34689;51.644;5.618;2022-12-07T14:43:12;5.90;99.90
48876;DHT22;34689;51.644;5.618;2022-12-07T14:45:39;5.80;99.90
48876;DHT22;34689;51.644;5.618;2022-12-07T14:48:07;5.60;99.90
48876;DHT22;34689;51.644;5.618;2022-12-07T14:50:37;5.60;99.90
48876;DHT22;34689;51.644;5.618;2022-12-07T14:53:13;5.50;99.90
48876;DHT22;34689;51.644;5.618;2022-12-07T14:55:39;5.40;99.90
48876;DHT22;34689;51.644;5.618;2022-12-07T14:58:10;5.30;99.90
48876;DHT22;34689;51.644;5.618;2022-12-07T15:00:39;5.30;99.90
48876;DHT22;34689;51.644;5.618;2022-12-07T15:03:05;5.30;99.90
48876;DHT22;34689;51.644;5.618;2022-12-07T15:05:31;5.20;99.90
48876;DHT22;34689;51.644;5.618;2022-12-07T15:07:58;5.10;99.90
48876;DHT22;34689;51.644;5.618;2022-12-07T15:10:26;5.10;99.90
48876;DHT22;34689;51.644;5.618;2022-12-07T15:13:01;5.00;99.90
48876;DHT22;34689;51.644;5.618;2022-12-07T15:15:50;5.00;99.90
48876;DHT22;34689;51.644;5.618;2022-12-07T15:18:19;4.90;99.90
48876;DHT22;34689;51.644;5.618;2022-12-07T15:20:45;4.90;99.90
48876;DHT22;34689;51.644;5.618;2022-12-07T15:23:13;4.90;99.90
48876;DHT22;34689;51.644;5.618;2022-12-07T15:25:45;4.90;99.90
48876;DHT22;34689;51.644;5.618;2022-12-07T15:28:16;4.80;99.90
48876;DHT22;34689;51.644;5.618;2022-12-07T15:30:43;4.80;99.90
48876;DHT22;34689;51.644;5.618;2022-12-07T15:33:10;4.80;99.90
48876;DHT22;34689;51.644;5.618;2022-12-07T15:35:44;4.80;99.90
48876;DHT22;34689;51.644;5.618;2022-12-07T15:38:10;4.80;99.90
48876;DHT22;34689;51.644;5.618;2022-12-07T15:40:35;4.80;99.90
48876;DHT22;34689;51.644;5.618;2022-12-07T15:43:03;4.80;99.90
48876;DHT22;34689;51.644;5.618;2022-12-07T15:45:29;4.70;99.90
48876;DHT22;34689;51.644;5.618;2022-12-07T15:47:56;4.70;99.90
48876;DHT22;34689;51.644;5.618;2022-12-07T15:50:22;4.80;99.90
48876;DHT22;34689;51.644;5.618;2022-12-07T15:52:48;4.80;99.90
48876;DHT22;34689;51.644;5.618;2022-12-07T15:55:14;4.80;99.90
48876;DHT22;34689;51.644;5.618;2022-12-07T15:57:40;4.70;99.90
48876;DHT22;34689;51.644;5.618;2022-12-07T16:00:07;4.80;99.90
48876;DHT22;34689;51.644;5.618;2022-12-07T16:02:34;4.80;99.90
48876;DHT22;34689;51.644;5.618;2022-12-07T16:05:00;4.70;99.90
48876;DHT22;34689;51.644;5.618;2022-12-07T16:07:25;4.70;99.90
48876;DHT22;34689;51.644;5.618;2022-12-07T16:09:51;4.70;99.90
48876;DHT22;34689;51.644;5.618;2022-12-07T16:12:16;4.80;99.90
48876;DHT22;34689;51.644;5.618;2022-12-07T16:14:42;4.70;99.90
48876;DHT22;34689;51.644;5.618;2022-12-07T16:17:09;4.80;99.90
48876;DHT22;34689;51.644;5.618;2022-12-07T16:19:36;4.70;99.90
48876;DHT22;34689;51.644;5.618;2022-12-07T16:22:02;4.70;99.90
48876;DHT22;34689;51.644;5.618;2022-12-07T16:24:28;4.70;99.90
48876;DHT22;34689;51.644;5.618;2022-12-07T16:26:54;4.70;99.90
48876;DHT22;34689;51.644;5.618;2022-12-07T16:29:21;4.70;99.90
48876;DHT22;34689;51.644;5.618;2022-12-07T16:31:48;4.70;99.90
48876;DHT22;34689;51.644;5.618;2022-12-07T16:34:14;4.70;99.90
48876;DHT22;34689;51.644;5.618;2022-12-07T16:36:40;4.70;99.90
48876;DHT22;34689;51.644;5.618;2022-12-07T16:39:06;4.80;99.90
48876;DHT22;34689;51.644;5.618;2022-12-07T16:41:32;4.80;99.90
48876;DHT22;34689;51.644;5.618;2022-12-07T16:44:03;4.80;99.90
48876;DHT22;34689;51.644;5.618;2022-12-07T16:46:28;4.80;99.90
48876;DHT22;34689;51.644;5.618;2022-12-07T16:48:55;4.80;99.90
48876;DHT22;34689;51.644;5.618;2022-12-07T16:51:21;4.80;99.90
48876;DHT22;34689;51.644;5.618;2022-12-07T16:53:46;4.80;99.90
48876;DHT22;34689;51.644;5.618;2022-12-07T16:56:13;4.80;99.90
48876;DHT22;34689;51.644;5.618;2022-12-07T16:58:40;4.80;99.90
48876;DHT22;34689;51.644;5.618;2022-12-07T17:01:15;4.80;99.90
48876;DHT22;34689;51.644;5.618;2022-12-07T17:03:42;4.80;99.90
48876;DHT22;34689;51.644;5.618;2022-12-07T17:06:22;4.90;99.90
48876;DHT22;34689;51.644;5.618;2022-12-07T17:08:49;4.90;99.90
48876;DHT22;34689;51.644;5.618;2022-12-07T17:11:26;4.90;99.90
48876;DHT22;34689;51.644;5.618;2022-12-07T17:13:53;4.90;99.90
48876;DHT22;34689;51.644;5.618;2022-12-07T17:16:37;4.90;99.90
48876;DHT22;34689;51.644;5.618;2022-12-07T17:19:08;4.90;99.90
48876;DHT22;34689;51.644;5.618;2022-12-07T17:21:35;5.00;99.90
48876;DHT22;34689;51.644;5.618;2022-12-07T17:24:02;4.90;99.90
48876;DHT22;34689;51.644;5.618;2022-12-07T17:26:28;5.00;99.90
48876;DHT22;34689;51.644;5.618;2022-12-07T17:28:54;5.00;99.90
48876;DHT22;34689;51.644;5.618;2022-12-07T17:31:21;5.00;99.90
48876;DHT22;34689;51.644;5.618;2022-12-07T17:33:47;5.00;99.90
48876;DHT22;34689;51.644;5.618;2022-12-07T17:36:19;5.00;99.90
48876;DHT22;34689;51.644;5.618;2022-12-07T17:38:45;5.00;99.90
48876;DHT22;34689;51.644;5.618;2022-12-07T17:41:21;5.00;99.90
48876;DHT22;34689;51.644;5.618;2022-12-07T17:44:07;5.00;99.90
48876;DHT22;34689;51.644;5.618;2022-12-07T17:46:34;5.00;99.90
48876;DHT22;34689;51.644;5.618;2022-12-07T17:49:00;5.00;99.90
48876;DHT22;34689;51.644;5.618;2022-12-07T17:51:26;5.00;99.90
48876;DHT22;34689;51.644;5.618;2022-12-07T17:54:11;5.00;99.90
48876;DHT22;34689;51.644;5.618;2022-12-07T17:56:37;4.90;99.90
48876;DHT22;34689;51.644;5.618;2022-12-07T17:59:03;4.90;99.90
48876;DHT22;34689;51.644;5.618;2022-12-07T18:01:30;4.90;99.90
48876;DHT22;34689;51.644;5.618;2022-12-07T18:03:56;5.00;99.90
48876;DHT22;34689;51.644;5.618;2022-12-07T18:06:21;4.90;99.90
48876;DHT22;34689;51.644;5.618;2022-12-07T18:08:47;4.90;99.90
48876;DHT22;34689;51.644;5.618;2022-12-07T18:11:13;4.90;99.90
48876;DHT22;34689;51.644;5.618;2022-12-07T18:13:39;4.90;99.90
48876;DHT22;34689;51.644;5.618;2022-12-07T18:16:07;4.90;99.90